sensor_id;sensor_type;location;lat;lon;timestamp;P1;durP1;ratioP1;P2;durP2;ratioP2
65924;SDS011;66010;52.084;5.412;2023-02-15T00:01:32;14.02;;;4.00;;
65924;SDS011;66010;52.084;5.412;2023-02-15T00:03:59;13.32;;;4.13;;
65924;SDS011;66010;52.084;5.412;2023-02-15T00:06:25;11.63;;;3.75;;
65924;SDS011;66010;52.084;5.412;2023-02-15T00:08:53;12.27;;;3.83;;
65924;SDS011;66010;52.084;5.412;2023-02-15T00:16:34;11.43;;;3.75;;
65924;SDS011;66010;52.084;5.412;2023-02-15T00:19:01;13.48;;;3.70;;
65924;SDS011;66010;52.084;5.412;2023-02-15T00:21:28;11.65;;;3.92;;
65924;SDS011;66010;52.084;5.412;2023-02-15T00:23:56;12.45;;;3.65;;
65924;SDS011;66010;52.084;5.412;2023-02-15T00:26:22;9.93;;;3.47;;
65924;SDS011;66010;52.084;5.412;2023-02-15T00:28:49;14.60;;;3.97;;
65924;SDS011;66010;52.084;5.412;2023-02-15T00:31:15;12.68;;;3.53;;
65924;SDS011;66010;52.084;5.412;2023-02-15T00:33:42;14.73;;;3.15;;
65924;SDS011;66010;52.084;5.412;2023-02-15T00:36:09;9.43;;;3.53;;
65924;SDS011;66010;52.084;5.412;2023-02-15T00:38:36;11.85;;;3.70;;
65924;SDS011;66010;52.084;5.412;2023-02-15T00:41:03;9.43;;;3.60;;
65924;SDS011;66010;52.084;5.412;2023-02-15T00:43:30;11.02;;;3.35;;
65924;SDS011;66010;52.084;5.412;2023-02-15T00:45:57;8.07;;;3.40;;
65924;SDS011;66010;52.084;5.412;2023-02-15T00:48:23;8.35;;;3.35;;
65924;SDS011;66010;52.084;5.412;2023-02-15T00:50:52;8.68;;;3.30;;
65924;SDS011;66010;52.084;5.412;2023-02-15T00:53:19;8.30;;;3.42;;
65924;SDS011;66010;52.084;5.412;2023-02-15T00:55:45;7.53;;;3.47;;
65924;SDS011;66010;52.084;5.412;2023-02-15T00:58:12;10.02;;;3.17;;
65924;SDS011;66010;52.084;5.412;2023-02-15T01:00:39;9.70;;;3.38;;
65924;SDS011;66010;52.084;5.412;2023-02-15T01:05:33;8.68;;;3.70;;
65924;SDS011;66010;52.084;5.412;2023-02-15T01:08:02;8.23;;;3.50;;
65924;SDS011;66010;52.084;5.412;2023-02-15T01:10:29;8.23;;;4.13;;
65924;SDS011;66010;52.084;5.412;2023-02-15T01:12:55;7.35;;;3.65;;
65924;SDS011;66010;52.084;5.412;2023-02-15T01:15:22;8.23;;;3.80;;
65924;SDS011;66010;52.084;5.412;2023-02-15T01:17:49;7.20;;;3.58;;
65924;SDS011;66010;52.084;5.412;2023-02-15T01:20:21;8.38;;;3.53;;
65924;SDS011;66010;52.084;5.412;2023-02-15T01:22:48;7.70;;;3.88;;
65924;SDS011;66010;52.084;5.412;2023-02-15T01:25:16;9.52;;;4.15;;
65924;SDS011;66010;52.084;5.412;2023-02-15T01:27:43;7.93;;;3.83;;
65924;SDS011;66010;52.084;5.412;2023-02-15T01:30:11;7.18;;;3.78;;
65924;SDS011;66010;52.084;5.412;2023-02-15T01:35:06;8.90;;;3.25;;
65924;SDS011;66010;52.084;5.412;2023-02-15T01:37:33;8.85;;;3.83;;
65924;SDS011;66010;52.084;5.412;2023-02-15T01:40:00;8.32;;;3.55;;
65924;SDS011;66010;52.084;5.412;2023-02-15T01:42:27;7.45;;;3.63;;
65924;SDS011;66010;52.084;5.412;2023-02-15T01:44:56;7.15;;;3.50;;
65924;SDS011;66010;52.084;5.412;2023-02-15T01:47:32;8.77;;;3.42;;
65924;SDS011;66010;52.084;5.412;2023-02-15T01:50:21;7.10;;;3.60;;
65924;SDS011;66010;52.084;5.412;2023-02-15T01:55:38;9.10;;;4.07;;
65924;SDS011;66010;52.084;5.412;2023-02-15T01:58:05;7.97;;;3.78;;
65924;SDS011;66010;52.084;5.412;2023-02-15T02:00:32;8.23;;;4.00;;
65924;SDS011;66010;52.084;5.412;2023-02-15T02:03:00;8.90;;;3.63;;
65924;SDS011;66010;52.084;5.412;2023-02-15T02:05:28;7.78;;;3.90;;
65924;SDS011;66010;52.084;5.412;2023-02-15T02:07:55;10.02;;;3.80;;
65924;SDS011;66010;52.084;5.412;2023-02-15T02:10:23;6.72;;;3.30;;
65924;SDS011;66010;52.084;5.412;2023-02-15T02:12:51;7.50;;;3.63;;
65924;SDS011;66010;52.084;5.412;2023-02-15T02:15:19;8.73;;;3.97;;
65924;SDS011;66010;52.084;5.412;2023-02-15T02:20:28;25.02;;;8.68;;
65924;SDS011;66010;52.084;5.412;2023-02-15T02:23:00;17.35;;;8.55;;
65924;SDS011;66010;52.084;5.412;2023-02-15T02:30:46;17.30;;;10.32;;
65924;SDS011;66010;52.084;5.412;2023-02-15T02:43:15;18.10;;;10.18;;
65924;SDS011;66010;52.084;5.412;2023-02-15T02:45:53;19.70;;;10.65;;
65924;SDS011;66010;52.084;5.412;2023-02-15T02:48:24;18.38;;;10.98;;
65924;SDS011;66010;52.084;5.412;2023-02-15T02:50:51;16.38;;;9.73;;
65924;SDS011;66010;52.084;5.412;2023-02-15T02:53:18;16.88;;;9.95;;
65924;SDS011;66010;52.084;5.412;2023-02-15T02:55:45;16.95;;;10.40;;
65924;SDS011;66010;52.084;5.412;2023-02-15T02:58:23;17.23;;;10.02;;
65924;SDS011;66010;52.084;5.412;2023-02-15T03:00:54;15.20;;;9.07;;
65924;SDS011;66010;52.084;5.412;2023-02-15T03:03:41;16.20;;;9.30;;
65924;SDS011;66010;52.084;5.412;2023-02-15T03:06:13;17.15;;;10.43;;
65924;SDS011;66010;52.084;5.412;2023-02-15T03:08:46;16.13;;;8.88;;
65924;SDS011;66010;52.084;5.412;2023-02-15T03:11:13;17.77;;;10.80;;
65924;SDS011;66010;52.084;5.412;2023-02-15T03:13:40;16.30;;;9.50;;
65924;SDS011;66010;52.084;5.412;2023-02-15T03:16:07;18.20;;;9.55;;
65924;SDS011;66010;52.084;5.412;2023-02-15T03:19:05;17.17;;;10.40;;
65924;SDS011;66010;52.084;5.412;2023-02-15T03:21:34;18.95;;;10.07;;
65924;SDS011;66010;52.084;5.412;2023-02-15T03:24:16;17.33;;;9.60;;
65924;SDS011;66010;52.084;5.412;2023-02-15T03:26:45;19.15;;;10.60;;
65924;SDS011;66010;52.084;5.412;2023-02-15T03:29:13;16.95;;;9.30;;
65924;SDS011;66010;52.084;5.412;2023-02-15T03:31:42;17.08;;;9.65;;
65924;SDS011;66010;52.084;5.412;2023-02-15T03:34:11;16.77;;;10.15;;
65924;SDS011;66010;52.084;5.412;2023-02-15T03:36:46;18.02;;;10.15;;
65924;SDS011;66010;52.084;5.412;2023-02-15T03:39:17;16.33;;;10.25;;
65924;SDS011;66010;52.084;5.412;2023-02-15T03:41:54;17.10;;;9.43;;
65924;SDS011;66010;52.084;5.412;2023-02-15T03:44:31;16.67;;;10.13;;
65924;SDS011;66010;52.084;5.412;2023-02-15T03:47:00;17.40;;;10.40;;
65924;SDS011;66010;52.084;5.412;2023-02-15T03:49:30;16.48;;;9.80;;
65924;SDS011;66010;52.084;5.412;2023-02-15T03:51:57;17.83;;;10.48;;
65924;SDS011;66010;52.084;5.412;2023-02-15T03:54:28;16.13;;;10.02;;
65924;SDS011;66010;52.084;5.412;2023-02-15T03:57:16;17.15;;;9.68;;
65924;SDS011;66010;52.084;5.412;2023-02-15T04:00:13;16.90;;;10.40;;
65924;SDS011;66010;52.084;5.412;2023-02-15T04:03:03;16.92;;;9.35;;
65924;SDS011;66010;52.084;5.412;2023-02-15T04:05:33;16.48;;;9.82;;
65924;SDS011;66010;52.084;5.412;2023-02-15T04:07:59;17.20;;;10.10;;
65924;SDS011;66010;52.084;5.412;2023-02-15T04:10:26;16.48;;;9.35;;
65924;SDS011;66010;52.084;5.412;2023-02-15T04:13:11;16.75;;;9.88;;
65924;SDS011;66010;52.084;5.412;2023-02-15T04:15:37;16.35;;;9.48;;
65924;SDS011;66010;52.084;5.412;2023-02-15T04:18:22;16.48;;;10.23;;
65924;SDS011;66010;52.084;5.412;2023-02-15T04:21:07;17.27;;;9.80;;
65924;SDS011;66010;52.084;5.412;2023-02-15T04:23:52;16.80;;;9.93;;
65924;SDS011;66010;52.084;5.412;2023-02-15T04:26:37;17.27;;;8.95;;
65924;SDS011;66010;52.084;5.412;2023-02-15T04:29:04;17.02;;;9.35;;
65924;SDS011;66010;52.084;5.412;2023-02-15T04:31:30;15.45;;;9.10;;
65924;SDS011;66010;52.084;5.412;2023-02-15T04:33:57;15.20;;;9.07;;
65924;SDS011;66010;52.084;5.412;2023-02-15T04:36:23;17.33;;;10.20;;
65924;SDS011;66010;52.084;5.412;2023-02-15T04:38:50;17.20;;;9.82;;
65924;SDS011;66010;52.084;5.412;2023-02-15T04:41:16;18.85;;;10.45;;
65924;SDS011;66010;52.084;5.412;2023-02-15T04:43:42;16.60;;;9.45;;
65924;SDS011;66010;52.084;5.412;2023-02-15T04:46:09;16.85;;;8.73;;
65924;SDS011;66010;52.084;5.412;2023-02-15T04:48:35;15.82;;;8.90;;
65924;SDS011;66010;52.084;5.412;2023-02-15T04:51:05;16.42;;;9.60;;
65924;SDS011;66010;52.084;5.412;2023-02-15T04:53:33;18.33;;;9.40;;
65924;SDS011;66010;52.084;5.412;2023-02-15T04:55:59;16.05;;;9.23;;
65924;SDS011;66010;52.084;5.412;2023-02-15T04:58:26;16.02;;;9.02;;
65924;SDS011;66010;52.084;5.412;2023-02-15T05:00:56;16.25;;;10.20;;
65924;SDS011;66010;52.084;5.412;2023-02-15T05:03:23;16.52;;;9.43;;
65924;SDS011;66010;52.084;5.412;2023-02-15T05:05:49;17.33;;;9.45;;
65924;SDS011;66010;52.084;5.412;2023-02-15T05:08:16;16.50;;;9.27;;
65924;SDS011;66010;52.084;5.412;2023-02-15T05:10:42;17.85;;;9.45;;
65924;SDS011;66010;52.084;5.412;2023-02-15T05:13:09;19.45;;;10.68;;
65924;SDS011;66010;52.084;5.412;2023-02-15T05:15:35;18.17;;;10.48;;
65924;SDS011;66010;52.084;5.412;2023-02-15T05:18:02;16.85;;;10.05;;
65924;SDS011;66010;52.084;5.412;2023-02-15T05:20:28;18.08;;;9.73;;
65924;SDS011;66010;52.084;5.412;2023-02-15T05:22:55;15.75;;;9.23;;
65924;SDS011;66010;52.084;5.412;2023-02-15T05:25:21;16.05;;;9.52;;
65924;SDS011;66010;52.084;5.412;2023-02-15T05:28:10;15.75;;;9.68;;
65924;SDS011;66010;52.084;5.412;2023-02-15T05:30:46;16.20;;;9.48;;
65924;SDS011;66010;52.084;5.412;2023-02-15T05:33:12;17.27;;;9.68;;
65924;SDS011;66010;52.084;5.412;2023-02-15T05:35:39;17.13;;;10.07;;
65924;SDS011;66010;52.084;5.412;2023-02-15T05:38:05;17.77;;;10.32;;
65924;SDS011;66010;52.084;5.412;2023-02-15T05:40:32;15.15;;;9.27;;
65924;SDS011;66010;52.084;5.412;2023-02-15T05:42:58;16.63;;;9.15;;
65924;SDS011;66010;52.084;5.412;2023-02-15T05:45:25;17.35;;;9.18;;
65924;SDS011;66010;52.084;5.412;2023-02-15T05:47:51;16.40;;;10.15;;
65924;SDS011;66010;52.084;5.412;2023-02-15T05:50:18;14.75;;;8.70;;
65924;SDS011;66010;52.084;5.412;2023-02-15T05:52:46;16.10;;;9.80;;
65924;SDS011;66010;52.084;5.412;2023-02-15T05:55:12;16.48;;;9.20;;
65924;SDS011;66010;52.084;5.412;2023-02-15T05:57:39;16.88;;;9.68;;
65924;SDS011;66010;52.084;5.412;2023-02-15T06:00:05;18.98;;;9.10;;
65924;SDS011;66010;52.084;5.412;2023-02-15T06:02:38;26.90;;;9.30;;
65924;SDS011;66010;52.084;5.412;2023-02-15T06:05:05;18.58;;;9.15;;
65924;SDS011;66010;52.084;5.412;2023-02-15T06:07:31;15.40;;;8.27;;
65924;SDS011;66010;52.084;5.412;2023-02-15T06:09:58;15.70;;;8.30;;
65924;SDS011;66010;52.084;5.412;2023-02-15T06:12:24;17.90;;;8.70;;
65924;SDS011;66010;52.084;5.412;2023-02-15T06:14:51;15.45;;;8.65;;
65924;SDS011;66010;52.084;5.412;2023-02-15T06:17:17;16.10;;;8.23;;
65924;SDS011;66010;52.084;5.412;2023-02-15T06:19:44;16.13;;;8.20;;
65924;SDS011;66010;52.084;5.412;2023-02-15T06:22:10;17.02;;;8.20;;
65924;SDS011;66010;52.084;5.412;2023-02-15T06:24:37;14.10;;;7.60;;
65924;SDS011;66010;52.084;5.412;2023-02-15T06:27:03;15.13;;;7.78;;
65924;SDS011;66010;52.084;5.412;2023-02-15T06:29:29;14.13;;;7.65;;
65924;SDS011;66010;52.084;5.412;2023-02-15T06:31:56;14.07;;;7.72;;
65924;SDS011;66010;52.084;5.412;2023-02-15T06:34:23;15.93;;;7.80;;
65924;SDS011;66010;52.084;5.412;2023-02-15T06:36:49;14.38;;;7.63;;
65924;SDS011;66010;52.084;5.412;2023-02-15T06:39:16;14.10;;;7.88;;
65924;SDS011;66010;52.084;5.412;2023-02-15T06:41:42;13.45;;;7.65;;
65924;SDS011;66010;52.084;5.412;2023-02-15T06:44:09;14.32;;;7.72;;
65924;SDS011;66010;52.084;5.412;2023-02-15T06:46:35;15.63;;;8.05;;
65924;SDS011;66010;52.084;5.412;2023-02-15T06:49:02;15.52;;;7.82;;
65924;SDS011;66010;52.084;5.412;2023-02-15T06:51:28;16.10;;;8.10;;
65924;SDS011;66010;52.084;5.412;2023-02-15T06:53:54;13.85;;;7.72;;
65924;SDS011;66010;52.084;5.412;2023-02-15T06:56:21;17.02;;;7.68;;
65924;SDS011;66010;52.084;5.412;2023-02-15T06:58:47;14.55;;;7.75;;
65924;SDS011;66010;52.084;5.412;2023-02-15T07:01:15;15.60;;;7.18;;
65924;SDS011;66010;52.084;5.412;2023-02-15T07:03:42;15.75;;;8.00;;
65924;SDS011;66010;52.084;5.412;2023-02-15T07:06:08;17.67;;;8.32;;
65924;SDS011;66010;52.084;5.412;2023-02-15T07:08:37;14.48;;;7.70;;
65924;SDS011;66010;52.084;5.412;2023-02-15T07:11:04;24.92;;;8.35;;
65924;SDS011;66010;52.084;5.412;2023-02-15T07:13:49;18.98;;;8.45;;
65924;SDS011;66010;52.084;5.412;2023-02-15T07:16:15;19.20;;;9.00;;
65924;SDS011;66010;52.084;5.412;2023-02-15T07:18:42;17.10;;;7.30;;
65924;SDS011;66010;52.084;5.412;2023-02-15T07:21:08;14.15;;;7.95;;
65924;SDS011;66010;52.084;5.412;2023-02-15T07:23:35;13.57;;;7.15;;
65924;SDS011;66010;52.084;5.412;2023-02-15T07:26:02;13.55;;;7.38;;
65924;SDS011;66010;52.084;5.412;2023-02-15T07:28:29;12.65;;;7.10;;
65924;SDS011;66010;52.084;5.412;2023-02-15T07:30:55;15.88;;;7.38;;
65924;SDS011;66010;52.084;5.412;2023-02-15T07:33:21;15.30;;;7.10;;
65924;SDS011;66010;52.084;5.412;2023-02-15T07:35:54;12.48;;;6.95;;
65924;SDS011;66010;52.084;5.412;2023-02-15T07:38:23;12.43;;;6.40;;
65924;SDS011;66010;52.084;5.412;2023-02-15T07:40:50;10.55;;;6.22;;
65924;SDS011;66010;52.084;5.412;2023-02-15T07:43:17;14.50;;;6.18;;
65924;SDS011;66010;52.084;5.412;2023-02-15T07:45:43;14.30;;;6.55;;
65924;SDS011;66010;52.084;5.412;2023-02-15T07:48:10;13.80;;;6.05;;
65924;SDS011;66010;52.084;5.412;2023-02-15T07:50:36;12.23;;;6.03;;
65924;SDS011;66010;52.084;5.412;2023-02-15T07:53:03;11.32;;;6.10;;
65924;SDS011;66010;52.084;5.412;2023-02-15T07:55:29;10.90;;;5.93;;
65924;SDS011;66010;52.084;5.412;2023-02-15T07:57:56;10.27;;;5.85;;
65924;SDS011;66010;52.084;5.412;2023-02-15T08:00:23;10.43;;;5.47;;
65924;SDS011;66010;52.084;5.412;2023-02-15T08:02:52;9.85;;;5.80;;
65924;SDS011;66010;52.084;5.412;2023-02-15T08:05:39;10.80;;;5.40;;
65924;SDS011;66010;52.084;5.412;2023-02-15T08:08:07;10.57;;;5.25;;
65924;SDS011;66010;52.084;5.412;2023-02-15T08:10:34;10.30;;;5.35;;
65924;SDS011;66010;52.084;5.412;2023-02-15T08:13:19;9.95;;;5.13;;
65924;SDS011;66010;52.084;5.412;2023-02-15T08:15:49;9.20;;;5.13;;
65924;SDS011;66010;52.084;5.412;2023-02-15T08:18:16;9.57;;;5.25;;
65924;SDS011;66010;52.084;5.412;2023-02-15T08:20:43;10.50;;;5.25;;
65924;SDS011;66010;52.084;5.412;2023-02-15T08:23:14;9.02;;;5.15;;
65924;SDS011;66010;52.084;5.412;2023-02-15T08:25:41;9.35;;;4.93;;
65924;SDS011;66010;52.084;5.412;2023-02-15T08:28:07;9.57;;;4.72;;
65924;SDS011;66010;52.084;5.412;2023-02-15T08:30:33;10.00;;;4.97;;
65924;SDS011;66010;52.084;5.412;2023-02-15T08:33:02;9.73;;;5.05;;
65924;SDS011;66010;52.084;5.412;2023-02-15T08:35:28;9.20;;;4.78;;
65924;SDS011;66010;52.084;5.412;2023-02-15T08:37:55;8.40;;;4.60;;
65924;SDS011;66010;52.084;5.412;2023-02-15T08:40:21;12.77;;;5.13;;
65924;SDS011;66010;52.084;5.412;2023-02-15T08:42:48;8.18;;;4.35;;
65924;SDS011;66010;52.084;5.412;2023-02-15T08:45:14;8.82;;;4.82;;
65924;SDS011;66010;52.084;5.412;2023-02-15T08:47:40;9.93;;;4.43;;
65924;SDS011;66010;52.084;5.412;2023-02-15T08:50:07;7.70;;;4.15;;
65924;SDS011;66010;52.084;5.412;2023-02-15T08:52:33;9.05;;;4.25;;
65924;SDS011;66010;52.084;5.412;2023-02-15T08:55:00;13.98;;;4.90;;
65924;SDS011;66010;52.084;5.412;2023-02-15T08:57:26;9.82;;;4.65;;
65924;SDS011;66010;52.084;5.412;2023-02-15T08:59:53;11.05;;;4.68;;
65924;SDS011;66010;52.084;5.412;2023-02-15T09:02:21;8.88;;;4.68;;
65924;SDS011;66010;52.084;5.412;2023-02-15T09:04:47;9.48;;;4.85;;
65924;SDS011;66010;52.084;5.412;2023-02-15T09:07:14;10.27;;;5.03;;
65924;SDS011;66010;52.084;5.412;2023-02-15T09:09:40;10.13;;;5.00;;
65924;SDS011;66010;52.084;5.412;2023-02-15T09:12:07;8.10;;;4.40;;
65924;SDS011;66010;52.084;5.412;2023-02-15T09:14:33;10.63;;;4.88;;
65924;SDS011;66010;52.084;5.412;2023-02-15T09:16:59;10.48;;;4.63;;
65924;SDS011;66010;52.084;5.412;2023-02-15T09:19:27;10.52;;;4.80;;
65924;SDS011;66010;52.084;5.412;2023-02-15T09:21:53;9.20;;;5.25;;
65924;SDS011;66010;52.084;5.412;2023-02-15T09:24:20;9.07;;;4.93;;
65924;SDS011;66010;52.084;5.412;2023-02-15T09:26:47;10.73;;;5.25;;
65924;SDS011;66010;52.084;5.412;2023-02-15T09:31:40;8.52;;;5.20;;
65924;SDS011;66010;52.084;5.412;2023-02-15T09:34:07;8.90;;;4.80;;
65924;SDS011;66010;52.084;5.412;2023-02-15T09:36:35;10.43;;;5.07;;
65924;SDS011;66010;52.084;5.412;2023-02-15T09:39:12;8.02;;;4.55;;
65924;SDS011;66010;52.084;5.412;2023-02-15T09:41:44;9.25;;;5.22;;
65924;SDS011;66010;52.084;5.412;2023-02-15T09:47:01;9.30;;;5.30;;
65924;SDS011;66010;52.084;5.412;2023-02-15T09:52:16;9.48;;;4.95;;
65924;SDS011;66010;52.084;5.412;2023-02-15T09:57:14;11.02;;;5.78;;
65924;SDS011;66010;52.084;5.412;2023-02-15T09:59:52;9.50;;;5.50;;
65924;SDS011;66010;52.084;5.412;2023-02-15T10:02:27;9.90;;;5.70;;
65924;SDS011;66010;52.084;5.412;2023-02-15T10:05:16;8.25;;;4.60;;
65924;SDS011;66010;52.084;5.412;2023-02-15T10:10:39;8.93;;;5.45;;
65924;SDS011;66010;52.084;5.412;2023-02-15T10:18:25;10.15;;;5.40;;
65924;SDS011;66010;52.084;5.412;2023-02-15T10:20:58;9.90;;;6.00;;
65924;SDS011;66010;52.084;5.412;2023-02-15T10:26:01;9.35;;;5.28;;
65924;SDS011;66010;52.084;5.412;2023-02-15T10:28:32;8.95;;;5.32;;
65924;SDS011;66010;52.084;5.412;2023-02-15T10:31:12;9.68;;;5.53;;
65924;SDS011;66010;52.084;5.412;2023-02-15T10:33:43;10.25;;;5.53;;
65924;SDS011;66010;52.084;5.412;2023-02-15T10:36:22;9.40;;;5.03;;
65924;SDS011;66010;52.084;5.412;2023-02-15T10:49:43;10.38;;;5.95;;
65924;SDS011;66010;52.084;5.412;2023-02-15T10:59:55;8.35;;;4.78;;
65924;SDS011;66010;52.084;5.412;2023-02-15T11:07:26;8.70;;;4.47;;
65924;SDS011;66010;52.084;5.412;2023-02-15T11:10:05;8.73;;;4.97;;
65924;SDS011;66010;52.084;5.412;2023-02-15T11:12:43;9.13;;;4.85;;
65924;SDS011;66010;52.084;5.412;2023-02-15T11:17:43;8.77;;;4.38;;
65924;SDS011;66010;52.084;5.412;2023-02-15T11:22:37;8.70;;;4.57;;
65924;SDS011;66010;52.084;5.412;2023-02-15T11:25:14;9.48;;;4.72;;
65924;SDS011;66010;52.084;5.412;2023-02-15T11:27:41;9.60;;;5.22;;
65924;SDS011;66010;52.084;5.412;2023-02-15T11:30:14;9.70;;;5.57;;
65924;SDS011;66010;52.084;5.412;2023-02-15T11:32:43;8.52;;;5.05;;
65924;SDS011;66010;52.084;5.412;2023-02-15T11:37:39;8.65;;;4.75;;
65924;SDS011;66010;52.084;5.412;2023-02-15T11:40:14;8.77;;;4.95;;
65924;SDS011;66010;52.084;5.412;2023-02-15T11:42:41;9.18;;;4.93;;
65924;SDS011;66010;52.084;5.412;2023-02-15T11:47:44;9.15;;;5.03;;
65924;SDS011;66010;52.084;5.412;2023-02-15T11:50:14;9.23;;;4.90;;
65924;SDS011;66010;52.084;5.412;2023-02-15T11:52:41;9.77;;;5.72;;
65924;SDS011;66010;52.084;5.412;2023-02-15T11:55:11;10.40;;;5.68;;
65924;SDS011;66010;52.084;5.412;2023-02-15T11:57:39;10.05;;;5.28;;
65924;SDS011;66010;52.084;5.412;2023-02-15T12:02:37;9.93;;;5.30;;
65924;SDS011;66010;52.084;5.412;2023-02-15T12:05:24;11.27;;;5.85;;
65924;SDS011;66010;52.084;5.412;2023-02-15T12:07:55;9.02;;;5.30;;
65924;SDS011;66010;52.084;5.412;2023-02-15T12:13:15;9.65;;;5.53;;
65924;SDS011;66010;52.084;5.412;2023-02-15T12:15:46;8.65;;;4.97;;
65924;SDS011;66010;52.084;5.412;2023-02-15T12:18:20;9.70;;;5.07;;
65924;SDS011;66010;52.084;5.412;2023-02-15T12:20:47;9.95;;;5.55;;
65924;SDS011;66010;52.084;5.412;2023-02-15T12:23:15;8.90;;;5.03;;
65924;SDS011;66010;52.084;5.412;2023-02-15T12:25:51;8.60;;;4.38;;
65924;SDS011;66010;52.084;5.412;2023-02-15T12:30:49;8.30;;;4.65;;
65924;SDS011;66010;52.084;5.412;2023-02-15T12:33:29;8.77;;;4.75;;
65924;SDS011;66010;52.084;5.412;2023-02-15T12:35:59;9.20;;;5.10;;
65924;SDS011;66010;52.084;5.412;2023-02-15T12:38:28;9.27;;;4.95;;
65924;SDS011;66010;52.084;5.412;2023-02-15T12:41:03;8.63;;;4.88;;
65924;SDS011;66010;52.084;5.412;2023-02-15T12:43:36;8.30;;;4.72;;
65924;SDS011;66010;52.084;5.412;2023-02-15T12:46:24;8.43;;;4.43;;
65924;SDS011;66010;52.084;5.412;2023-02-15T12:51:57;7.95;;;4.38;;
65924;SDS011;66010;52.084;5.412;2023-02-15T12:54:32;8.45;;;4.75;;
65924;SDS011;66010;52.084;5.412;2023-02-15T12:56:59;7.97;;;3.92;;
65924;SDS011;66010;52.084;5.412;2023-02-15T12:59:25;9.98;;;5.50;;
65924;SDS011;66010;52.084;5.412;2023-02-15T13:01:52;8.18;;;4.43;;
65924;SDS011;66010;52.084;5.412;2023-02-15T13:04:25;9.60;;;5.15;;
65924;SDS011;66010;52.084;5.412;2023-02-15T13:06:53;7.63;;;4.00;;
65924;SDS011;66010;52.084;5.412;2023-02-15T13:09:25;7.75;;;4.22;;
65924;SDS011;66010;52.084;5.412;2023-02-15T13:11:52;7.43;;;4.25;;
65924;SDS011;66010;52.084;5.412;2023-02-15T13:14:19;7.07;;;4.00;;
65924;SDS011;66010;52.084;5.412;2023-02-15T13:16:48;7.50;;;3.97;;
65924;SDS011;66010;52.084;5.412;2023-02-15T13:21:50;7.50;;;3.90;;
65924;SDS011;66010;52.084;5.412;2023-02-15T13:24:19;8.98;;;4.15;;
65924;SDS011;66010;52.084;5.412;2023-02-15T13:26:47;7.22;;;4.05;;
65924;SDS011;66010;52.084;5.412;2023-02-15T13:29:24;7.82;;;3.80;;
65924;SDS011;66010;52.084;5.412;2023-02-15T13:31:52;6.93;;;3.95;;
65924;SDS011;66010;52.084;5.412;2023-02-15T13:34:28;7.50;;;3.97;;
65924;SDS011;66010;52.084;5.412;2023-02-15T13:39:34;7.30;;;3.92;;
65924;SDS011;66010;52.084;5.412;2023-02-15T13:54:47;11.02;;;5.40;;
65924;SDS011;66010;52.084;5.412;2023-02-15T13:57:26;9.50;;;5.35;;
65924;SDS011;66010;52.084;5.412;2023-02-15T14:10:27;11.30;;;5.95;;
65924;SDS011;66010;52.084;5.412;2023-02-15T14:15:44;11.68;;;5.93;;
65924;SDS011;66010;52.084;5.412;2023-02-15T14:23:28;12.38;;;5.45;;
65924;SDS011;66010;52.084;5.412;2023-02-15T14:31:49;13.80;;;5.00;;
65924;SDS011;66010;52.084;5.412;2023-02-15T14:34:22;15.55;;;6.65;;
65924;SDS011;66010;52.084;5.412;2023-02-15T14:36:50;11.20;;;5.82;;
65924;SDS011;66010;52.084;5.412;2023-02-15T14:39:41;11.93;;;5.93;;
65924;SDS011;66010;52.084;5.412;2023-02-15T14:42:30;10.98;;;5.90;;
65924;SDS011;66010;52.084;5.412;2023-02-15T14:45:05;11.50;;;5.75;;
65924;SDS011;66010;52.084;5.412;2023-02-15T14:47:40;11.32;;;5.75;;
65924;SDS011;66010;52.084;5.412;2023-02-15T14:55:39;9.35;;;5.22;;
65924;SDS011;66010;52.084;5.412;2023-02-15T14:58:09;10.35;;;5.68;;
65924;SDS011;66010;52.084;5.412;2023-02-15T15:00:37;9.35;;;5.70;;
65924;SDS011;66010;52.084;5.412;2023-02-15T15:03:38;9.02;;;5.22;;
65924;SDS011;66010;52.084;5.412;2023-02-15T15:05:58;10.27;;;5.97;;
65924;SDS011;66010;52.084;5.412;2023-02-15T15:11:36;10.32;;;5.93;;
65924;SDS011;66010;52.084;5.412;2023-02-15T15:14:09;9.45;;;5.82;;
65924;SDS011;66010;52.084;5.412;2023-02-15T15:19:03;11.13;;;5.88;;
65924;SDS011;66010;52.084;5.412;2023-02-15T15:23:55;8.77;;;5.57;;
65924;SDS011;66010;52.084;5.412;2023-02-15T15:26:26;9.98;;;5.53;;
65924;SDS011;66010;52.084;5.412;2023-02-15T15:28:54;10.30;;;5.70;;
65924;SDS011;66010;52.084;5.412;2023-02-15T15:49:41;9.05;;;5.28;;
65924;SDS011;66010;52.084;5.412;2023-02-15T15:52:14;9.90;;;5.82;;
65924;SDS011;66010;52.084;5.412;2023-02-15T15:54:42;10.93;;;5.82;;
65924;SDS011;66010;52.084;5.412;2023-02-15T15:57:14;10.52;;;5.95;;
65924;SDS011;66010;52.084;5.412;2023-02-15T15:59:43;9.68;;;5.85;;
65924;SDS011;66010;52.084;5.412;2023-02-15T16:02:14;10.68;;;6.10;;
65924;SDS011;66010;52.084;5.412;2023-02-15T16:04:43;10.65;;;6.05;;
65924;SDS011;66010;52.084;5.412;2023-02-15T16:07:20;10.13;;;5.45;;
65924;SDS011;66010;52.084;5.412;2023-02-15T16:09:58;9.77;;;5.72;;
65924;SDS011;66010;52.084;5.412;2023-02-15T16:12:29;10.65;;;6.18;;
65924;SDS011;66010;52.084;5.412;2023-02-15T16:14:56;10.77;;;6.30;;
65924;SDS011;66010;52.084;5.412;2023-02-15T16:17:24;10.80;;;6.13;;
65924;SDS011;66010;52.084;5.412;2023-02-15T16:19:51;10.93;;;6.22;;
65924;SDS011;66010;52.084;5.412;2023-02-15T16:22:21;10.70;;;6.05;;
65924;SDS011;66010;52.084;5.412;2023-02-15T16:29:48;11.48;;;6.30;;
65924;SDS011;66010;52.084;5.412;2023-02-15T16:34:57;10.90;;;7.07;;
65924;SDS011;66010;52.084;5.412;2023-02-15T16:37:28;11.50;;;7.63;;
65924;SDS011;66010;52.084;5.412;2023-02-15T16:42:24;14.80;;;9.30;;
65924;SDS011;66010;52.084;5.412;2023-02-15T16:44:51;19.40;;;12.90;;
65924;SDS011;66010;52.084;5.412;2023-02-15T16:47:24;17.60;;;11.55;;
65924;SDS011;66010;52.084;5.412;2023-02-15T16:49:52;19.48;;;12.00;;
65924;SDS011;66010;52.084;5.412;2023-02-15T16:52:23;17.58;;;11.60;;
65924;SDS011;66010;52.084;5.412;2023-02-15T16:54:52;16.85;;;11.02;;
65924;SDS011;66010;52.084;5.412;2023-02-15T16:57:20;20.80;;;11.13;;
65924;SDS011;66010;52.084;5.412;2023-02-15T16:59:51;18.05;;;10.80;;
65924;SDS011;66010;52.084;5.412;2023-02-15T17:02:24;18.13;;;11.23;;
65924;SDS011;66010;52.084;5.412;2023-02-15T17:07:41;25.55;;;13.07;;
65924;SDS011;66010;52.084;5.412;2023-02-15T17:10:28;22.70;;;12.05;;
65924;SDS011;66010;52.084;5.412;2023-02-15T17:12:56;19.75;;;11.50;;
65924;SDS011;66010;52.084;5.412;2023-02-15T17:18:03;20.60;;;12.50;;
65924;SDS011;66010;52.084;5.412;2023-02-15T17:20:31;22.75;;;12.75;;
65924;SDS011;66010;52.084;5.412;2023-02-15T17:23:01;22.85;;;12.98;;
65924;SDS011;66010;52.084;5.412;2023-02-15T17:25:39;22.77;;;12.50;;
65924;SDS011;66010;52.084;5.412;2023-02-15T17:28:06;22.00;;;12.85;;
65924;SDS011;66010;52.084;5.412;2023-02-15T17:30:41;24.10;;;13.05;;
65924;SDS011;66010;52.084;5.412;2023-02-15T17:33:46;22.73;;;12.77;;
65924;SDS011;66010;52.084;5.412;2023-02-15T17:36:07;25.08;;;13.63;;
65924;SDS011;66010;52.084;5.412;2023-02-15T17:38:38;22.88;;;13.57;;
65924;SDS011;66010;52.084;5.412;2023-02-15T17:41:05;25.02;;;14.52;;
65924;SDS011;66010;52.084;5.412;2023-02-15T17:43:32;24.27;;;14.13;;
65924;SDS011;66010;52.084;5.412;2023-02-15T17:45:58;22.45;;;13.90;;
65924;SDS011;66010;52.084;5.412;2023-02-15T17:48:28;23.38;;;14.25;;
65924;SDS011;66010;52.084;5.412;2023-02-15T17:50:57;26.25;;;14.88;;
65924;SDS011;66010;52.084;5.412;2023-02-15T17:55:51;19.13;;;12.20;;
65924;SDS011;66010;52.084;5.412;2023-02-15T17:58:18;21.33;;;13.52;;
65924;SDS011;66010;52.084;5.412;2023-02-15T18:03:40;20.48;;;12.30;;
65924;SDS011;66010;52.084;5.412;2023-02-15T18:06:26;20.25;;;12.57;;